Time;durP1;ratioP1;P1;durP2;ratioP2;P2;SDS_P1;SDS_P2;PMS_P1;PMS_P2;Temp;Humidity;BMP_temperature;BMP_pressure;BME280_temperature;BME280_humidity;BME280_pressure;Samples;Min_cycle;Max_cycle;Signal;HPM_P1;HPM_P2
2023/03/29 00:00:02;;;;;;;4.53;3.97;;;6.90;99.90;;;7.42;76.02;98367.13;5235981;28;20192;-62
2023/03/29 00:02:35;;;;;;;4.70;4.40;;;6.70;99.90;;;7.40;77.19;98367.00;5230707;28;20231;-60
2023/03/29 00:05:11;;;;;;;4.60;4.27;;;6.70;99.90;;;7.34;78.59;98352.94;5238561;28;20274;-62
2023/03/29 00:07:45;;;;;;;4.70;4.17;;;6.60;99.90;;;7.22;77.61;98343.59;5234252;28;20588;-62
2023/03/29 00:10:19;;;;;;;4.30;4.00;;;6.60;99.90;;;7.16;77.81;98339.69;5232531;28;20636;-62
2023/03/29 00:12:52;;;;;;;4.90;4.50;;;6.50;99.90;;;7.12;79.29;98336.00;5231518;28;20275;-62
2023/03/29 00:15:26;;;;;;;4.70;4.33;;;6.40;99.90;;;7.08;79.53;98322.97;5233828;28;20586;-63
2023/03/29 00:17:59;;;;;;;5.17;4.67;;;6.30;99.90;;;7.00;80.27;98327.44;5233995;28;20200;-62
2023/03/29 00:20:32;;;;;;;4.50;4.20;;;6.30;99.90;;;7.07;79.14;98311.91;5236479;28;20196;-63
2023/03/29 00:23:06;;;;;;;4.53;4.13;;;6.30;99.90;;;6.98;79.61;98308.63;5238862;28;20307;-64
2023/03/29 00:25:44;;;;;;;4.40;4.10;;;6.20;99.90;;;6.96;80.94;98308.53;5236235;28;20302;-62
2023/03/29 00:28:17;;;;;;;4.83;4.37;;;6.20;99.90;;;6.97;81.69;98289.97;5241115;28;20656;-62
2023/03/29 00:30:51;;;;;;;5.13;4.53;;;6.20;99.90;;;6.94;81.96;98319.34;5240442;28;20699;-62
2023/03/29 00:33:24;;;;;;;4.10;3.80;;;6.20;99.90;;;6.86;81.95;98310.22;5237643;28;20192;-62
2023/03/29 00:35:57;;;;;;;4.97;4.40;;;6.10;99.90;;;6.93;82.48;98294.72;5234319;28;20898;-61
2023/03/29 00:38:32;;;;;;;4.60;4.30;;;6.10;99.90;;;7.03;82.07;98304.81;5232416;28;20215;-61
2023/03/29 00:41:06;;;;;;;5.47;4.87;;;6.10;99.90;;;6.97;81.84;98306.88;5237105;28;20291;-63
2023/03/29 00:43:59;;;;;;;5.27;4.87;;;6.10;99.90;;;6.94;82.92;98299.00;5237509;28;20708;-60
2023/03/29 00:46:33;;;;;;;4.77;4.37;;;6.10;99.90;;;6.91;82.50;98294.56;5238653;28;20280;-62
2023/03/29 00:49:11;;;;;;;5.13;4.73;;;6.10;99.90;;;6.99;82.00;98298.59;5226184;28;20687;-63
2023/03/29 00:51:45;;;;;;;5.33;4.50;;;6.10;99.90;;;7.04;82.27;98293.88;5236898;28;20201;-63
2023/03/29 00:54:20;;;;;;;4.50;4.13;;;6.10;99.90;;;7.03;81.87;98303.91;5230267;28;20340;-62
2023/03/29 00:56:53;;;;;;;4.70;4.40;;;6.10;99.90;;;6.96;82.38;98312.72;5233634;28;20600;-63
2023/03/29 00:59:31;;;;;;;5.30;4.80;;;6.10;99.90;;;7.00;83.61;98300.38;5239689;28;20214;-61
2023/03/29 01:02:06;;;;;;;5.00;4.70;;;6.10;99.90;;;7.00;82.58;98296.94;5231452;28;20624;-63
2023/03/29 01:04:44;;;;;;;4.80;4.43;;;6.10;99.90;;;6.96;84.12;98289.88;5232559;28;20314;-62
2023/03/29 01:07:22;;;;;;;4.80;4.50;;;6.10;99.90;;;6.93;84.11;98287.09;5235543;28;20283;-62
2023/03/29 01:10:04;;;;;;;4.20;3.80;;;6.10;99.90;;;7.11;81.90;98288.50;5232830;28;20201;-62
2023/03/29 01:12:43;;;;;;;4.73;4.33;;;6.20;99.90;;;6.99;82.70;98277.38;5230121;28;20240;-62
2023/03/29 01:15:21;;;;;;;4.80;4.40;;;6.10;99.90;;;6.94;82.28;98271.94;5232468;28;20691;-63
2023/03/29 01:17:56;;;;;;;4.70;4.30;;;6.10;99.90;;;6.91;83.27;98270.81;5228457;28;20297;-62
2023/03/29 01:21:03;;;;;;;4.50;4.10;;;6.10;99.90;;;6.90;83.63;98276.69;5231644;28;20680;-62
2023/03/29 01:23:57;;;;;;;4.50;4.20;;;6.10;99.90;;;6.89;84.96;98272.34;5230252;28;20224;-63
2023/03/29 01:26:43;;;;;;;4.87;4.43;;;6.10;99.90;;;6.89;85.33;98259.66;5227407;28;20218;-61
2023/03/29 01:29:25;;;;;;;4.97;4.47;;;6.10;99.90;;;6.87;84.09;98254.47;5237277;28;20616;-60
2023/03/29 01:32:02;;;;;;;4.33;4.10;;;6.10;99.90;;;6.81;84.67;98248.91;5231623;28;20232;-63
2023/03/29 01:34:42;;;;;;;4.30;3.90;;;6.00;99.90;;;6.80;85.87;98233.53;5235926;28;20255;-61
2023/03/29 01:37:23;;;;;;;4.90;4.50;;;6.00;99.90;;;6.75;84.86;98221.38;5233972;28;20695;-62
2023/03/29 01:39:56;;;;;;;4.40;4.10;;;6.00;99.90;;;6.61;84.28;98221.97;5230721;28;20751;-62
2023/03/29 01:42:42;;;;;;;4.17;3.87;;;5.90;99.90;;;6.58;83.77;98210.66;5237563;28;20640;-59
2023/03/29 01:45:23;;;;;;;4.57;4.17;;;5.90;99.90;;;6.44;83.09;98204.50;5230382;28;20231;-61
2023/03/29 01:48:02;;;;;;;4.47;4.17;;;5.80;99.90;;;6.60;82.31;98204.03;5233984;28;20303;-62
2023/03/29 01:50:43;;;;;;;4.03;3.83;;;5.90;99.90;;;6.58;82.40;98201.41;5238999;28;20737;-61
2023/03/29 01:53:21;;;;;;;4.57;4.17;;;5.90;99.90;;;6.61;83.38;98194.03;5231472;28;20299;-63
2023/03/29 01:56:00;;;;;;;4.70;4.40;;;5.90;99.90;;;6.47;84.19;98192.06;5233600;28;20232;-62
2023/03/29 01:58:37;;;;;;;4.30;3.90;;;5.80;99.90;;;6.36;84.79;98197.94;5241284;28;20197;-62
2023/03/29 02:01:18;;;;;;;4.83;4.50;;;5.70;99.90;;;6.36;85.82;98196.28;5241693;28;20287;-61
2023/03/29 02:03:56;;;;;;;4.70;4.40;;;5.70;99.90;;;6.53;84.14;98192.53;5234478;28;20225;-62
2023/03/29 02:06:31;;;;;;;4.37;4.03;;;5.70;99.90;;;6.52;85.25;98200.91;5225054;28;20197;-62
2023/03/29 02:09:05;;;;;;;3.87;3.57;;;5.80;99.90;;;6.53;83.97;98207.78;5231039;28;20730;-61
2023/03/29 02:11:42;;;;;;;4.97;4.57;;;5.70;99.90;;;6.52;84.58;98206.91;5227429;28;20284;-64
2023/03/29 02:14:15;;;;;;;4.30;4.00;;;5.80;99.90;;;6.43;83.78;98205.25;5234886;28;20212;-61
2023/03/29 02:16:50;;;;;;;4.73;4.40;;;5.70;99.90;;;6.45;84.31;98194.47;5234884;28;20738;-62
2023/03/29 02:19:24;;;;;;;4.37;4.07;;;5.70;99.90;;;6.51;83.78;98199.13;5233144;28;20668;-60
2023/03/29 02:22:04;;;;;;;3.80;3.60;;;5.80;99.90;;;6.54;84.52;98192.63;5235951;28;20202;-60
2023/03/29 02:24:39;;;;;;;4.93;4.40;;;5.80;99.90;;;6.41;84.77;98186.47;5232473;28;20236;-60
2023/03/29 02:27:12;;;;;;;4.53;4.13;;;5.70;99.90;;;6.44;85.11;98196.88;5229660;28;20223;-61
2023/03/29 02:29:46;;;;;;;4.10;3.80;;;5.70;99.90;;;6.43;84.43;98180.75;5236079;28;20193;-60
2023/03/29 02:32:26;;;;;;;3.77;3.47;;;5.70;99.90;;;6.46;84.38;98165.75;5237395;28;20228;-58
2023/03/29 02:35:06;;;;;;;3.70;3.40;;;5.70;99.90;;;6.48;83.58;98158.28;5232027;28;20239;-61
2023/03/29 02:37:43;;;;;;;4.23;3.93;;;5.70;99.90;;;6.57;83.46;98147.94;5236525;28;20200;-60
2023/03/29 02:40:17;;;;;;;4.70;4.30;;;5.80;99.90;;;6.55;84.91;98145.28;5227982;28;20705;-62
2023/03/29 02:42:50;;;;;;;4.07;3.77;;;5.80;99.90;;;6.40;85.57;98144.97;5233274;28;20208;-59
2023/03/29 02:45:25;;;;;;;4.07;3.73;;;5.70;99.90;;;6.43;85.49;98134.19;5234620;28;20320;-62
2023/03/29 02:48:05;;;;;;;4.07;3.47;;;5.70;99.90;;;6.42;85.87;98117.19;5230650;28;20204;-59
2023/03/29 02:50:41;;;;;;;4.07;3.77;;;5.70;99.90;;;6.45;86.54;98133.53;5238682;28;20207;-59
2023/03/29 02:53:18;;;;;;;3.90;3.57;;;5.70;99.90;;;6.44;86.18;98121.63;5232652;28;20207;-58
2023/03/29 02:55:52;;;;;;;3.90;3.70;;;5.70;99.90;;;6.50;86.13;98132.25;5231153;28;20217;-60
2023/03/29 02:58:27;;;;;;;3.83;3.53;;;5.70;99.90;;;6.51;86.46;98117.88;5234477;28;20225;-62
2023/03/29 03:01:02;;;;;;;3.93;3.70;;;5.70;99.90;;;6.47;86.08;98105.75;5237278;28;20214;-60
2023/03/29 03:03:37;;;;;;;3.57;3.33;;;5.70;99.90;;;6.39;86.68;98110.22;5233605;28;20204;-61
2023/03/29 03:06:11;;;;;;;4.07;3.77;;;5.70;99.90;;;6.39;85.77;98110.22;5231536;28;20266;-61
2023/03/29 03:08:44;;;;;;;4.10;3.80;;;5.60;99.90;;;6.43;85.33;98111.34;5234575;28;20197;-60
2023/03/29 03:11:17;;;;;;;4.03;3.73;;;5.70;99.90;;;6.40;85.46;98116.16;5227795;28;20629;-62
2023/03/29 03:13:50;;;;;;;3.50;3.30;;;5.60;99.90;;;6.30;85.33;98117.13;5233527;28;20225;-61
2023/03/29 03:16:24;;;;;;;3.73;3.50;;;5.60;99.90;;;6.32;85.55;98115.56;5237099;28;20642;-61
2023/03/29 03:18:59;;;;;;;3.87;3.67;;;5.50;99.90;;;6.31;86.59;98129.91;5235946;28;20583;-61
2023/03/29 03:21:33;;;;;;;4.07;3.03;;;5.50;99.90;;;6.27;87.12;98111.81;5234892;28;20632;-62
2023/03/29 03:24:07;;;;;;;3.53;3.23;;;5.40;99.90;;;6.19;88.08;98121.38;5231198;28;20704;-61
2023/03/29 03:26:40;;;;;;;3.80;3.50;;;5.30;99.90;;;6.14;88.44;98109.09;5226439;28;20198;-62
2023/03/29 03:29:14;;;;;;;3.40;3.10;;;5.30;99.90;;;6.05;89.37;98115.22;5227473;28;20282;-62
2023/03/29 03:31:47;;;;;;;3.83;3.50;;;5.20;99.90;;;6.04;89.38;98107.50;5232876;28;20331;-60
2023/03/29 03:34:23;;;;;;;3.50;3.20;;;5.20;99.90;;;5.93;89.07;98110.81;5233690;28;20247;-62
2023/03/29 03:37:00;;;;;;;3.80;3.53;;;5.10;99.90;;;5.92;89.24;98098.88;5231209;28;20206;-60
2023/03/29 03:39:33;;;;;;;3.90;3.60;;;5.10;99.90;;;5.92;89.83;98091.25;5233244;28;20304;-60
2023/03/29 03:42:06;;;;;;;3.20;3.00;;;5.10;99.90;;;5.80;89.05;98086.97;5226740;28;20660;-62
2023/03/29 03:44:40;;;;;;;3.73;3.43;;;5.00;99.90;;;5.81;89.37;98083.69;5230588;28;20241;-62
2023/03/29 03:47:14;;;;;;;3.77;3.50;;;5.00;99.90;;;5.87;89.14;98073.16;5227700;28;20203;-62
2023/03/29 03:49:48;;;;;;;4.43;4.03;;;5.10;99.90;;;5.92;89.29;98081.09;5232863;28;20204;-62
2023/03/29 03:52:21;;;;;;;3.70;3.50;;;5.10;99.90;;;6.07;88.02;98087.44;5233066;28;20662;-60
2023/03/29 03:54:55;;;;;;;4.07;3.57;;;5.20;99.90;;;6.11;89.07;98084.34;5231048;28;20216;-63
2023/03/29 03:57:28;;;;;;;4.27;3.97;;;5.20;99.90;;;6.11;88.15;98089.44;5224731;28;20201;-62
2023/03/29 04:00:08;;;;;;;4.00;3.80;;;5.20;99.90;;;6.05;89.67;98088.94;5234003;28;20290;-62
2023/03/29 04:02:41;;;;;;;4.63;4.10;;;5.20;99.90;;;5.98;89.74;98087.59;5228841;28;20843;-62
2023/03/29 04:05:17;;;;;;;3.80;3.50;;;5.20;99.90;;;6.01;89.57;98076.78;5233389;28;20224;-62
2023/03/29 04:07:51;;;;;;;4.20;3.80;;;5.20;99.90;;;5.99;89.15;98085.94;5232025;28;20193;-62
2023/03/29 04:10:24;;;;;;;3.57;3.37;;;5.20;99.90;;;5.95;89.22;98091.53;5225542;28;21738;-64
2023/03/29 04:13:01;;;;;;;3.70;3.40;;;5.20;99.90;;;5.99;89.38;98088.47;5231531;28;20560;-62
2023/03/29 04:15:37;;;;;;;3.80;3.60;;;5.20;99.90;;;6.01;90.29;98089.47;5227368;28;20307;-62
2023/03/29 04:18:10;;;;;;;4.80;3.93;;;5.20;99.90;;;6.07;90.02;98087.44;5228682;28;20197;-63
2023/03/29 04:20:46;;;;;;;3.80;3.50;;;5.20;99.90;;;6.05;90.13;98086.41;5227272;28;20205;-61
2023/03/29 04:23:19;;;;;;;3.37;3.20;;;5.20;99.90;;;6.04;90.72;98082.13;5227413;28;20736;-62
2023/03/29 04:25:55;;;;;;;3.43;3.23;;;5.30;99.90;;;6.04;90.61;98094.81;5225782;28;20217;-61
2023/03/29 04:28:28;;;;;;;3.70;3.40;;;5.20;99.90;;;6.08;90.69;98094.25;5235950;28;20201;-61
2023/03/29 04:31:01;;;;;;;3.87;3.60;;;5.30;99.90;;;6.07;91.00;98098.47;5226423;28;20201;-61
2023/03/29 04:33:35;;;;;;;4.00;3.60;;;5.20;99.90;;;6.02;90.50;98093.78;5228413;28;20649;-61
2023/03/29 04:36:10;;;;;;;4.03;3.73;;;5.20;99.90;;;6.05;89.85;98105.06;5226780;28;20566;-61
2023/03/29 04:38:43;;;;;;;3.33;3.13;;;5.30;99.90;;;6.09;89.58;98101.09;5227705;28;20204;-62
2023/03/29 04:41:20;;;;;;;3.77;3.30;;;5.30;99.90;;;6.08;89.75;98104.41;5228022;28;20204;-62
2023/03/29 04:43:54;;;;;;;3.23;3.03;;;5.20;99.90;;;6.09;89.02;98102.00;5236547;28;20263;-63
2023/03/29 04:46:28;;;;;;;3.00;2.70;;;5.30;99.90;;;6.13;89.91;98104.78;5238380;28;20668;-61
2023/03/29 04:49:01;;;;;;;3.53;3.23;;;5.30;99.90;;;6.20;88.05;98104.47;5235345;28;20189;-62
2023/03/29 04:51:36;;;;;;;3.17;2.97;;;5.40;99.90;;;6.07;88.59;98107.72;5228476;28;20288;-61
2023/03/29 04:54:09;;;;;;;3.30;3.10;;;5.30;99.90;;;5.95;88.54;98100.03;5230357;28;20244;-58
2023/03/29 04:56:42;;;;;;;3.23;3.03;;;5.20;99.90;;;5.91;88.65;98107.25;5236770;28;20216;-60
2023/03/29 04:59:15;;;;;;;3.37;3.17;;;5.10;99.90;;;5.93;89.46;98109.19;5242070;28;20289;-60
2023/03/29 05:01:48;;;;;;;3.10;2.90;;;5.20;99.90;;;5.99;89.96;98103.69;5237658;28;20247;-63
2023/03/29 05:04:22;;;;;;;3.00;2.80;;;5.30;99.90;;;6.01;90.66;98107.22;5233016;28;20278;-61
2023/03/29 05:06:57;;;;;;;3.20;3.00;;;5.30;99.90;;;6.03;90.98;98105.69;5237970;28;20251;-61
2023/03/29 05:09:30;;;;;;;4.90;3.27;;;5.30;99.90;;;6.06;90.58;98108.47;5239346;28;20716;-62
2023/03/29 05:12:07;;;;;;;3.67;3.37;;;5.30;99.90;;;6.04;90.41;98108.38;5240130;28;20201;-60
2023/03/29 05:14:40;;;;;;;3.67;3.10;;;5.30;99.90;;;6.08;90.52;98110.38;5242390;28;20315;-58
2023/03/29 05:17:13;;;;;;;3.83;3.33;;;5.30;99.90;;;6.14;90.96;98119.22;5242187;28;20200;-58
2023/03/29 05:19:46;;;;;;;5.77;3.50;;;5.30;99.90;;;6.18;90.99;98119.59;5239880;28;20580;-61
2023/03/29 05:22:22;;;;;;;3.83;3.33;;;5.30;99.90;;;6.29;89.97;98115.34;5238685;28;20196;-61
2023/03/29 05:24:56;;;;;;;3.90;3.60;;;5.40;99.90;;;6.18;90.80;98109.44;5234663;28;20221;-60
2023/03/29 05:27:29;;;;;;;4.50;4.20;;;5.40;99.90;;;6.19;90.23;98112.88;5239759;28;20273;-58
2023/03/29 05:30:03;;;;;;;4.00;3.70;;;5.40;99.90;;;6.07;90.00;98105.19;5243784;28;20200;-61
2023/03/29 05:32:37;;;;;;;4.47;4.17;;;5.30;99.90;;;5.98;90.82;98095.22;5237933;28;20251;-61
2023/03/29 05:35:10;;;;;;;4.43;4.20;;;5.30;99.90;;;6.15;90.16;98096.50;5237975;28;20235;-56
2023/03/29 05:37:46;;;;;;;4.20;3.90;;;5.40;99.90;;;6.18;91.34;98091.69;5239729;28;20197;-58
2023/03/29 05:40:19;;;;;;;4.20;3.90;;;5.40;99.90;;;6.24;91.03;98092.16;5244432;28;20238;-60
2023/03/29 05:42:53;;;;;;;3.90;3.70;;;5.50;99.90;;;6.30;91.24;98092.63;5237183;28;20300;-61
2023/03/29 05:45:27;;;;;;;4.63;3.87;;;5.50;99.90;;;6.34;91.08;98088.66;5233037;28;20253;-61
2023/03/29 05:48:02;;;;;;;3.60;3.40;;;5.50;99.90;;;6.30;91.49;98081.59;5238369;28;20246;-62
2023/03/29 05:50:37;;;;;;;4.17;3.87;;;5.50;99.90;;;6.35;91.33;98090.41;5243458;28;20206;-61
2023/03/29 05:53:11;;;;;;;4.23;3.93;;;5.60;99.90;;;6.47;92.01;98095.59;5236431;28;20210;-60
2023/03/29 05:55:45;;;;;;;4.10;3.80;;;5.60;99.90;;;6.48;91.62;98087.19;5227817;28;20266;-59
2023/03/29 05:58:19;;;;;;;4.03;3.80;;;5.60;99.90;;;6.58;91.74;98089.66;5238137;28;20201;-58
2023/03/29 06:00:52;;;;;;;5.07;4.57;;;5.60;99.90;;;6.62;91.92;98086.59;5233996;28;20216;-60
2023/03/29 06:03:26;;;;;;;5.77;5.27;;;5.70;99.90;;;6.62;91.45;98090.78;5238819;28;20295;-59
2023/03/29 06:06:02;;;;;;;4.97;4.50;;;5.70;99.90;;;6.65;91.89;98086.81;5240641;28;20228;-59
2023/03/29 06:08:37;;;;;;;6.40;5.70;;;5.70;99.90;;;6.79;90.97;98092.06;5233209;28;20242;-58
2023/03/29 06:11:12;;;;;;;5.80;5.30;;;5.80;99.90;;;6.75;90.85;98089.28;5239417;28;20212;-61
2023/03/29 06:13:45;;;;;;;5.77;5.27;;;5.90;99.90;;;6.86;91.02;98091.72;5232896;28;20282;-61
2023/03/29 06:16:18;;;;;;;5.40;4.90;;;5.90;99.90;;;6.83;91.29;98091.50;5245698;28;20224;-61
2023/03/29 06:18:52;;;;;;;5.40;4.90;;;5.90;99.90;;;6.83;91.24;98096.59;5236727;28;20288;-61
2023/03/29 06:21:27;;;;;;;5.57;5.17;;;6.00;99.90;;;6.82;91.28;98094.81;5233227;28;20305;-61
2023/03/29 06:24:01;;;;;;;5.20;4.80;;;6.00;99.90;;;6.87;90.97;98102.03;5241816;28;20307;-60
2023/03/29 06:26:34;;;;;;;5.30;4.80;;;6.00;99.90;;;6.91;91.59;98095.50;5241269;28;20211;-61
2023/03/29 06:29:08;;;;;;;4.87;4.53;;;6.10;99.90;;;6.94;91.32;98096.63;5243414;28;20720;-61
2023/03/29 06:31:41;;;;;;;4.50;4.20;;;6.10;99.90;;;7.03;91.08;98100.63;5241188;28;20224;-61
2023/03/29 06:34:15;;;;;;;4.67;4.37;;;6.20;99.90;;;7.12;90.86;98099.63;5234355;28;20855;-62
2023/03/29 06:36:49;;;;;;;6.23;5.20;;;6.20;99.90;;;7.18;89.96;98100.13;5235004;28;20207;-62
2023/03/29 06:39:25;;;;;;;4.70;4.30;;;6.30;99.90;;;7.24;89.19;98102.22;5244918;28;20204;-61
2023/03/29 06:41:58;;;;;;;4.90;4.40;;;6.30;99.90;;;7.19;88.87;98109.50;5235385;28;20295;-63
2023/03/29 06:44:39;;;;;;;5.67;5.10;;;6.30;99.90;;;7.18;88.72;98102.66;5241768;28;20574;-60
2023/03/29 06:47:12;;;;;;;5.17;4.77;;;6.30;99.90;;;7.21;89.37;98097.78;5244179;28;20239;-61
2023/03/29 06:49:45;;;;;;;5.10;4.60;;;6.40;99.90;;;7.26;89.39;98113.38;5225070;28;20664;-60
2023/03/29 06:52:18;;;;;;;4.57;4.17;;;6.40;99.90;;;7.35;90.61;98115.69;5231703;28;20259;-61
2023/03/29 06:54:53;;;;;;;4.80;4.40;;;6.50;99.90;;;7.41;89.76;98116.13;5238774;28;20224;-61
2023/03/29 06:57:26;;;;;;;7.63;6.13;;;6.50;99.90;;;7.49;89.68;98120.13;5231519;28;20199;-60
2023/03/29 07:00:00;;;;;;;7.03;6.40;;;6.60;99.90;;;7.56;89.73;98119.81;5244739;28;20228;-60
2023/03/29 07:02:33;;;;;;;8.00;7.20;;;6.70;99.90;;;7.56;88.32;98122.38;5235943;28;20227;-62
2023/03/29 07:05:10;;;;;;;8.33;7.63;;;6.70;99.90;;;7.54;87.75;98118.81;5237943;28;20758;-62
2023/03/29 07:07:55;;;;;;;7.00;6.33;;;6.70;99.90;;;7.61;88.99;98117.59;5238982;28;20738;-62
2023/03/29 07:10:33;;;;;;;7.47;6.20;;;6.80;99.90;;;7.71;88.71;98131.88;5241166;28;20577;-61
2023/03/29 07:13:07;;;;;;;5.90;4.93;;;6.80;99.90;;;7.86;86.35;98128.75;5235449;28;20200;-63
2023/03/29 07:15:41;;;;;;;5.13;4.73;;;6.90;99.90;;;7.82;86.85;98138.63;5235674;28;20223;-61
2023/03/29 07:18:16;;;;;;;5.00;4.60;;;6.90;99.90;;;7.81;86.82;98134.31;5239084;28;20642;-61
2023/03/29 07:20:49;;;;;;;4.70;4.23;;;7.00;99.90;;;7.90;86.83;98134.97;5238416;28;20200;-61
2023/03/29 07:23:22;;;;;;;4.10;3.80;;;7.00;99.90;;;7.98;87.12;98128.75;5238102;28;20279;-62
2023/03/29 07:25:56;;;;;;;4.20;3.90;;;7.20;99.90;;;8.10;86.46;98133.84;5232328;28;20319;-61
2023/03/29 07:28:30;;;;;;;4.33;4.00;;;7.30;99.90;;;8.27;86.47;98127.38;5227426;28;20303;-62
2023/03/29 07:31:05;;;;;;;4.60;4.30;;;7.50;99.90;;;8.37;86.25;98127.25;5235511;28;20403;-61
2023/03/29 07:33:39;;;;;;;4.57;4.17;;;7.60;99.90;;;8.48;86.75;98128.94;5235288;28;20218;-61
2023/03/29 07:36:14;;;;;;;4.60;4.20;;;7.70;99.90;;;8.63;86.93;98135.84;5227136;28;20205;-61
2023/03/29 07:38:47;;;;;;;4.70;4.30;;;7.90;99.90;;;8.80;86.62;98127.69;5240702;28;20642;-62
2023/03/29 07:41:22;;;;;;;4.27;3.87;;;8.00;99.90;;;8.93;85.67;98132.88;5238895;28;20204;-62
2023/03/29 07:43:55;;;;;;;4.40;4.00;;;8.20;99.90;;;9.15;84.09;98132.63;5242920;28;20230;-62
2023/03/29 07:46:28;;;;;;;5.07;4.60;;;8.30;99.90;;;9.40;82.89;98142.78;5237282;28;20695;-62
2023/03/29 07:49:02;;;;;;;9.70;6.90;;;8.40;99.90;;;9.39;81.57;98145.25;5234228;28;20681;-60
2023/03/29 07:51:37;;;;;;;6.50;5.90;;;8.50;99.90;;;9.48;81.12;98139.06;5237450;28;20308;-63
2023/03/29 07:54:10;;;;;;;7.60;6.80;;;8.60;99.90;;;9.56;81.74;98142.16;5233368;28;20244;-61
2023/03/29 07:56:44;;;;;;;6.07;5.57;;;8.60;99.90;;;9.61;82.07;98145.84;5237374;28;20200;-62
2023/03/29 07:59:18;;;;;;;5.75;5.10;;;8.70;99.90;;;9.68;79.59;98147.16;5236462;28;20216;-62
2023/03/29 08:01:51;;;;;;;5.22;4.80;;;8.70;99.90;;;9.75;79.71;98141.66;5238157;28;20207;-62
2023/03/29 08:04:25;;;;;;;5.97;5.22;;;8.80;99.90;;;9.87;79.12;98142.47;5239607;28;20223;-59
2023/03/29 08:06:58;;;;;;;5.53;4.60;;;8.90;99.90;;;9.91;78.27;98138.44;5241169;28;20228;-60
2023/03/29 08:09:31;;;;;;;4.70;4.38;;;9.00;99.90;;;10.00;78.28;98144.13;5242682;28;20299;-63
2023/03/29 08:12:06;;;;;;;4.97;4.45;;;9.10;99.90;;;10.05;76.83;98140.19;5238516;28;20291;-60
2023/03/29 08:14:39;;;;;;;4.57;4.18;;;9.10;99.90;;;10.10;76.59;98137.91;5235202;28;20685;-60
2023/03/29 08:17:12;;;;;;;16.98;11.30;;;9.20;99.90;;;10.15;74.57;98152.75;5240288;28;20292;-61
2023/03/29 08:19:45;;;;;;;16.20;12.27;;;9.30;99.90;;;10.23;74.67;98145.56;5240245;28;20477;-62
2023/03/29 08:22:23;;;;;;;13.35;10.18;;;9.30;99.90;;;10.32;73.75;98147.84;5242799;28;20197;-62
2023/03/29 08:24:56;;;;;;;10.15;8.27;;;9.30;99.90;;;10.36;72.99;98139.59;5240810;28;20712;-62
2023/03/29 08:27:31;;;;;;;11.63;9.25;;;9.40;99.90;;;10.40;73.57;98144.09;5241196;28;20660;-61
2023/03/29 08:30:06;;;;;;;9.88;7.35;;;9.50;99.90;;;10.50;74.47;98143.91;5236492;28;20204;-62
2023/03/29 08:32:40;;;;;;;7.85;6.30;;;9.60;99.90;;;10.58;74.47;98144.34;5242021;28;20280;-62
2023/03/29 08:35:13;;;;;;;7.95;5.78;;;9.70;99.90;;;10.76;73.69;98150.59;5237156;28;20700;-62
2023/03/29 08:37:46;;;;;;;13.90;6.00;;;9.80;99.90;;;11.01;70.65;98146.94;5233642;28;20216;-61
2023/03/29 08:40:23;;;;;;;13.73;7.15;;;10.00;99.90;;;11.03;70.03;98142.81;5228456;28;20666;-61
2023/03/29 08:43:12;;;;;;;6.03;4.53;;;10.00;99.90;;;11.17;68.39;98143.66;5230984;28;20199;-61
2023/03/29 08:45:58;;;;;;;4.22;3.42;;;10.20;99.90;;;11.19;68.75;98142.94;5227827;28;20236;-62
2023/03/29 08:48:36;;;;;;;4.40;3.25;;;10.20;99.90;;;11.28;68.28;98138.38;5234718;28;20212;-63
2023/03/29 08:51:17;;;;;;;3.22;2.97;;;10.20;99.90;;;11.43;67.54;98143.50;5232528;28;20223;-62
2023/03/29 08:53:55;;;;;;;4.15;3.03;;;10.30;99.90;;;11.50;66.32;98134.47;5247459;28;20377;-62
2023/03/29 08:56:32;;;;;;;3.30;3.00;;;10.40;99.90;;;11.59;66.51;98145.28;5232348;28;20208;-62
2023/03/29 08:59:19;;;;;;;4.25;2.65;;;10.50;99.90;;;11.85;62.79;98136.53;5241009;28;20563;-62
2023/03/29 09:01:56;;;;;;;3.58;2.67;;;10.80;99.90;;;11.79;64.35;98135.25;5234092;28;20246;-63
2023/03/29 09:04:35;;;;;;;3.97;2.97;;;10.80;99.90;;;11.82;63.89;98127.78;5232188;28;20251;-62
2023/03/29 09:07:09;;;;;;;4.78;2.75;;;10.70;99.90;;;11.80;63.75;98129.34;5237407;28;20300;-62
2023/03/29 09:09:43;;;;;;;3.67;2.80;;;10.80;99.90;;;11.80;63.35;98119.13;5235548;28;20199;-63
2023/03/29 09:12:29;;;;;;;2.97;2.70;;;10.80;99.90;;;11.85;64.16;98127.94;5241117;28;20204;-63
2023/03/29 09:15:18;;;;;;;4.28;2.90;;;10.80;99.90;;;12.05;62.51;98129.09;5234004;28;20231;-65
2023/03/29 09:18:01;;;;;;;3.70;3.03;;;10.90;99.90;;;12.03;62.98;98131.56;5239441;28;20626;-62
2023/03/29 09:20:46;;;;;;;3.20;2.90;;;10.90;99.90;;;12.04;62.00;98128.19;5234484;28;20192;-62
2023/03/29 09:23:43;;;;;;;4.10;3.65;;;10.90;99.90;;;12.04;62.80;98124.75;5243862;28;20209;-61
2023/03/29 09:26:27;;;;;;;4.45;3.45;;;11.00;99.90;;;12.21;60.85;98118.88;5235964;28;20673;-61
2023/03/29 09:29:19;;;;;;;4.32;4.03;;;11.10;99.90;;;12.30;60.10;98118.50;5242882;28;20312;-63
2023/03/29 09:31:55;;;;;;;4.55;3.63;;;11.20;99.90;;;12.38;60.08;98117.22;5239792;28;20228;-63
2023/03/29 09:34:36;;;;;;;3.95;3.63;;;11.30;99.90;;;12.46;60.56;98121.09;5240016;28;20224;-62
2023/03/29 09:37:20;;;;;;;2.63;2.42;;;11.40;99.90;;;12.67;59.50;98111.09;5241096;28;20193;-63
2023/03/29 09:39:55;;;;;;;3.30;3.00;;;11.50;99.90;;;12.75;57.52;98114.06;5240070;28;20220;-62
2023/03/29 09:42:30;;;;;;;4.38;2.72;;;11.70;99.90;;;12.85;57.24;98109.50;5245984;28;20204;-62
2023/03/29 09:45:07;;;;;;;3.30;3.00;;;11.80;99.90;;;13.27;55.70;98112.50;5235917;28;20224;-61
2023/03/29 09:47:46;;;;;;;2.45;2.25;;;12.10;99.90;;;13.34;54.83;98108.59;5237111;28;20223;-62
2023/03/29 09:50:24;;;;;;;4.22;2.45;;;12.20;99.90;;;13.65;53.08;98097.25;5240619;28;20263;-62
2023/03/29 09:53:04;;;;;;;2.67;2.47;;;12.50;99.20;;;13.72;53.12;98096.75;5234013;28;20196;-62
2023/03/29 09:55:39;;;;;;;2.80;2.60;;;12.60;99.00;;;13.70;53.52;98094.09;5233252;28;20307;-64
2023/03/29 09:58:15;;;;;;;3.08;2.42;;;12.60;99.30;;;13.82;53.57;98093.84;5243072;28;20250;-62
2023/03/29 10:00:49;;;;;;;2.78;2.58;;;12.60;99.50;;;13.83;53.61;98089.56;5241802;28;20630;-63
2023/03/29 10:03:26;;;;;;;2.85;2.50;;;12.70;99.00;;;14.00;52.79;98092.94;5235117;28;20596;-63
2023/03/29 10:06:01;;;;;;;3.45;2.50;;;12.80;98.30;;;14.22;51.16;98090.53;5240048;28;20227;-62
2023/03/29 10:08:39;;;;;;;2.72;2.53;;;13.00;98.20;;;14.32;49.97;98084.16;5237244;28;20299;-63
2023/03/29 10:11:20;;;;;;;3.55;2.40;;;13.10;97.20;;;14.48;49.87;98086.63;5233918;28;20212;-64
2023/03/29 10:13:56;;;;;;;2.65;2.30;;;13.30;96.80;;;14.54;48.75;98084.34;5236298;28;20584;-62
2023/03/29 10:16:34;;;;;;;2.42;2.22;;;13.40;95.50;;;14.69;48.93;98086.72;5234306;28;20196;-63
2023/03/29 10:19:21;;;;;;;2.38;2.17;;;13.50;95.40;;;14.85;48.31;98086.59;5235540;28;20200;-63
2023/03/29 10:21:56;;;;;;;3.20;2.38;;;13.70;95.20;;;14.80;46.77;98088.09;5236737;28;20217;-62
2023/03/29 10:24:29;;;;;;;3.20;2.20;;;13.70;94.10;;;14.86;45.59;98090.91;5243813;28;20642;-63
2023/03/29 10:27:04;;;;;;;3.60;2.50;;;13.70;93.90;;;14.91;48.22;98087.66;5233503;28;20204;-62
2023/03/29 10:29:42;;;;;;;2.63;2.33;;;13.60;95.10;;;15.11;45.05;98089.44;5231103;28;20311;-62
2023/03/29 10:32:17;;;;;;;3.78;2.10;;;13.90;93.20;;;15.08;44.83;98084.16;5230768;28;20205;-63
2023/03/29 10:34:53;;;;;;;4.25;2.70;;;14.10;92.80;;;15.09;45.24;98080.75;5232385;28;20278;-63
2023/03/29 10:37:28;;;;;;;3.20;2.20;;;14.10;92.70;;;15.18;45.04;98080.25;5234944;28;20291;-62
2023/03/29 10:40:02;;;;;;;3.35;2.42;;;14.10;93.00;;;15.45;44.36;98071.13;5234722;28;20208;-63
2023/03/29 10:42:36;;;;;;;2.47;2.28;;;14.50;92.20;;;15.44;45.53;98064.19;5236768;28;20197;-64
2023/03/29 10:45:22;;;;;;;2.20;2.10;;;14.50;92.50;;;15.41;43.98;98068.34;5236535;28;20596;-61
2023/03/29 10:47:56;;;;;;;2.50;2.30;;;14.40;92.00;;;15.61;45.31;98064.00;5244360;28;20199;-62
2023/03/29 10:50:36;;;;;;;3.20;2.33;;;14.40;93.20;;;15.69;43.74;98066.09;5242206;28;20287;-62
2023/03/29 10:53:16;;;;;;;3.15;2.28;;;14.60;91.50;;;15.71;43.65;98074.78;5237876;28;20207;-62
2023/03/29 10:56:02;;;;;;;2.75;2.28;;;14.70;91.60;;;15.75;46.32;98076.66;5234423;28;20585;-61
2023/03/29 10:58:46;;;;;;;2.35;2.22;;;14.60;93.40;;;15.71;43.94;98074.78;5237892;28;20185;-63
2023/03/29 11:01:27;;;;;;;2.42;2.22;;;14.50;91.70;;;15.87;43.87;98070.25;5236909;28;20274;-63
2023/03/29 11:04:22;;;;;;;2.75;2.15;;;14.60;91.90;;;15.74;42.78;98064.59;5244283;28;20220;-63
2023/03/29 11:07:22;;;;;;;2.10;2.00;;;14.60;91.00;;;15.74;43.38;98063.72;5240948;28;20205;-63